Time;durP1;ratioP1;P1;durP2;ratioP2;P2;SDS_P1;SDS_P2;PMS_P1;PMS_P2;Temp;Humidity;BMP_temperature;BMP_pressure;BME280_temperature;BME280_humidity;BME280_pressure;Samples;Min_cycle;Max_cycle;Signal;HPM_P1;HPM_P2
2024/03/20 00:02:20;;;;;;;2.17;0.82;;;9.70;84.80;;;;;;5116198;28;20088;-72
2024/03/20 00:04:46;;;;;;;0.63;0.50;;;9.60;84.80;;;;;;5115653;28;20043;-72
2024/03/20 00:07:12;;;;;;;0.45;0.45;;;9.60;84.80;;;;;;5098883;28;20043;-72
2024/03/20 00:09:37;;;;;;;0.63;0.50;;;9.60;84.90;;;;;;5134134;27;20550;-72
2024/03/20 00:12:03;;;;;;;1.13;0.60;;;9.60;84.90;;;;;;5134267;27;20042;-73
2024/03/20 00:14:29;;;;;;;0.90;0.60;;;9.60;84.90;;;;;;5098549;27;20051;-72
2024/03/20 00:16:56;;;;;;;1.30;0.60;;;9.60;85.00;;;;;;5134369;27;20394;-72
2024/03/20 00:19:23;;;;;;;1.67;0.70;;;9.60;85.00;;;;;;5133967;27;20077;-72
2024/03/20 00:21:48;;;;;;;0.73;0.60;;;9.60;85.00;;;;;;5134368;27;20055;-72
2024/03/20 00:24:15;;;;;;;0.60;0.55;;;9.60;84.90;;;;;;5133930;27;20091;-72
2024/03/20 00:26:40;;;;;;;1.15;0.63;;;9.60;84.90;;;;;;5115376;28;20080;-72
2024/03/20 00:29:08;;;;;;;0.93;0.75;;;9.50;84.90;;;;;;5133821;28;20047;-72
2024/03/20 00:31:34;;;;;;;0.75;0.57;;;9.50;84.90;;;;;;5115222;28;20035;-72
2024/03/20 00:34:00;;;;;;;0.63;0.60;;;9.50;85.00;;;;;;5133662;27;20047;-73
2024/03/20 00:36:26;;;;;;;0.70;0.55;;;9.50;85.00;;;;;;5133816;27;20050;-72
2024/03/20 00:38:53;;;;;;;0.80;0.70;;;9.50;85.10;;;;;;5133917;27;20114;-72
2024/03/20 00:41:18;;;;;;;0.90;0.60;;;9.50;85.20;;;;;;5134251;27;20068;-72
2024/03/20 00:43:44;;;;;;;0.73;0.57;;;9.40;85.20;;;;;;5115886;28;20043;-72
2024/03/20 00:46:10;;;;;;;1.50;0.63;;;9.40;85.30;;;;;;5133851;27;20050;-72
2024/03/20 00:48:36;;;;;;;1.10;0.70;;;9.30;85.30;;;;;;5133841;28;20420;-72
2024/03/20 00:51:01;;;;;;;1.27;0.55;;;9.40;85.40;;;;;;5133538;27;20387;-72
2024/03/20 00:53:27;;;;;;;1.13;0.50;;;9.40;85.40;;;;;;5113570;28;20055;-72
2024/03/20 00:55:53;;;;;;;0.60;0.60;;;9.30;85.40;;;;;;5115441;28;20371;-72
2024/03/20 00:58:18;;;;;;;1.35;0.60;;;9.40;85.50;;;;;;5133442;27;20050;-72
2024/03/20 01:00:45;;;;;;;0.60;0.50;;;9.30;85.50;;;;;;5133088;27;20035;-72
2024/03/20 01:03:11;;;;;;;0.52;0.47;;;9.30;85.50;;;;;;5097599;28;20391;-72
2024/03/20 01:05:36;;;;;;;0.55;0.55;;;9.20;85.50;;;;;;5114887;28;20043;-72
2024/03/20 01:08:02;;;;;;;1.50;0.60;;;9.30;85.60;;;;;;5097617;28;20039;-72
2024/03/20 01:10:28;;;;;;;0.50;0.50;;;9.30;85.60;;;;;;5133362;27;20031;-72
2024/03/20 01:12:54;;;;;;;1.08;0.70;;;9.30;85.70;;;;;;5133490;27;20043;-72
2024/03/20 01:15:19;;;;;;;0.57;0.50;;;9.20;85.60;;;;;;5133024;27;20050;-72
2024/03/20 01:17:45;;;;;;;0.60;0.50;;;9.20;85.60;;;;;;5132928;27;20048;-72
2024/03/20 01:20:11;;;;;;;0.43;0.43;;;9.20;85.70;;;;;;5114479;28;20080;-72
2024/03/20 01:22:38;;;;;;;0.50;0.50;;;9.20;85.70;;;;;;5114436;28;20450;-72
2024/03/20 01:25:06;;;;;;;0.55;0.52;;;9.20;85.70;;;;;;5130923;28;20122;-72
2024/03/20 01:27:32;;;;;;;0.95;0.60;;;9.20;85.70;;;;;;5132573;27;20043;-72
2024/03/20 01:29:58;;;;;;;0.95;0.60;;;9.20;85.80;;;;;;5097429;28;20085;-73
2024/03/20 01:32:24;;;;;;;0.63;0.60;;;9.10;85.80;;;;;;5133383;27;20039;-72
2024/03/20 01:34:50;;;;;;;0.47;0.47;;;9.20;85.80;;;;;;5132796;27;20398;-72
2024/03/20 01:37:16;;;;;;;0.85;0.68;;;9.10;85.80;;;;;;5114149;28;20039;-72
2024/03/20 01:39:42;;;;;;;0.55;0.40;;;9.10;85.90;;;;;;5133069;27;20111;-73
2024/03/20 01:42:08;;;;;;;0.70;0.50;;;9.10;86.00;;;;;;5132812;27;20039;-72
2024/03/20 01:44:34;;;;;;;0.55;0.50;;;9.10;86.00;;;;;;5132510;27;20390;-72
2024/03/20 01:47:02;;;;;;;1.13;0.60;;;9.10;86.00;;;;;;5114041;28;20043;-72
2024/03/20 01:49:29;;;;;;;0.80;0.60;;;9.00;86.00;;;;;;5133116;27;20083;-72
2024/03/20 01:51:55;;;;;;;1.27;0.70;;;9.00;86.10;;;;;;5113790;28;20039;-73
2024/03/20 01:54:21;;;;;;;0.68;0.60;;;9.00;86.10;;;;;;5132316;27;20039;-72
2024/03/20 01:56:47;;;;;;;1.10;0.70;;;9.00;86.10;;;;;;5114228;28;20047;-72
2024/03/20 01:59:13;;;;;;;0.63;0.63;;;9.00;86.20;;;;;;5132370;27;20038;-72
2024/03/20 02:01:39;;;;;;;2.90;0.75;;;9.00;86.30;;;;;;5132546;28;20085;-72
2024/03/20 02:04:05;;;;;;;1.38;0.70;;;9.00;86.30;;;;;;5133079;27;20035;-72
2024/03/20 02:06:32;;;;;;;0.70;0.70;;;9.00;86.30;;;;;;5135670;27;20375;-73
2024/03/20 02:08:58;;;;;;;0.90;0.60;;;8.90;86.30;;;;;;5083078;28;20065;-72
2024/03/20 02:11:26;;;;;;;0.80;0.60;;;8.90;86.30;;;;;;5115290;27;20490;-72
2024/03/20 02:13:57;;;;;;;0.90;0.63;;;8.90;86.30;;;;;;5136256;27;20047;-72
2024/03/20 02:16:25;;;;;;;0.90;0.60;;;8.90;86.30;;;;;;5115141;28;20040;-72
2024/03/20 02:18:52;;;;;;;0.63;0.63;;;8.90;86.30;;;;;;5135638;28;20042;-72
2024/03/20 02:21:23;;;;;;;1.15;0.70;;;8.90;86.30;;;;;;5100260;28;20054;-72
2024/03/20 02:23:51;;;;;;;0.82;0.68;;;8.90;86.40;;;;;;5071940;28;20115;-72
2024/03/20 02:26:17;;;;;;;0.75;0.40;;;8.80;86.30;;;;;;5071998;28;20045;-72
2024/03/20 02:28:44;;;;;;;1.17;0.65;;;8.90;86.40;;;;;;5072572;28;20124;-72
2024/03/20 02:31:11;;;;;;;0.70;0.50;;;8.80;86.40;;;;;;5072366;28;20048;-72
2024/03/20 02:33:39;;;;;;;0.63;0.52;;;8.90;86.40;;;;;;5055053;28;20052;-72
2024/03/20 02:36:05;;;;;;;0.52;0.47;;;8.90;86.50;;;;;;5071857;28;20080;-72
2024/03/20 02:38:34;;;;;;;0.70;0.60;;;8.90;86.50;;;;;;5072210;28;20512;-72
2024/03/20 02:41:00;;;;;;;0.50;0.50;;;8.80;86.50;;;;;;5038683;28;20132;-72
2024/03/20 02:43:27;;;;;;;0.85;0.60;;;8.80;86.50;;;;;;5055239;28;20110;-71
2024/03/20 02:45:53;;;;;;;0.47;0.47;;;8.80;86.50;;;;;;5055228;28;20465;-72
2024/03/20 02:48:19;;;;;;;0.50;0.50;;;8.80;86.60;;;;;;5054986;28;20047;-72
2024/03/20 02:50:45;;;;;;;0.60;0.60;;;8.80;86.60;;;;;;5072252;28;20051;-71
2024/03/20 02:53:11;;;;;;;0.47;0.43;;;8.70;86.60;;;;;;5072263;28;20041;-72
2024/03/20 02:55:39;;;;;;;0.98;0.80;;;8.70;86.60;;;;;;5125965;27;20066;-72
2024/03/20 02:58:05;;;;;;;1.27;0.60;;;8.70;86.70;;;;;;5135043;27;20035;-72
2024/03/20 03:00:31;;;;;;;0.88;0.60;;;8.70;86.70;;;;;;5135538;27;20061;-72
2024/03/20 03:02:58;;;;;;;1.05;0.70;;;8.70;86.70;;;;;;5116394;28;20452;-72
2024/03/20 03:05:25;;;;;;;0.57;0.50;;;8.70;86.70;;;;;;5116667;28;20092;-72
2024/03/20 03:07:52;;;;;;;0.88;0.57;;;8.70;86.80;;;;;;5134752;27;20031;-71
2024/03/20 03:10:19;;;;;;;1.40;0.73;;;8.70;86.90;;;;;;5116870;28;20046;-72
2024/03/20 03:12:47;;;;;;;0.55;0.50;;;8.60;86.90;;;;;;5116689;28;20039;-71
2024/03/20 03:15:12;;;;;;;0.75;0.60;;;8.60;86.90;;;;;;5098998;28;20039;-71
2024/03/20 03:17:39;;;;;;;0.55;0.55;;;8.60;87.00;;;;;;5134383;27;20098;-72
2024/03/20 03:20:11;;;;;;;1.33;0.47;;;8.60;87.00;;;;;;5099650;28;20047;-71
2024/03/20 03:22:39;;;;;;;0.50;0.50;;;8.60;87.10;;;;;;5134636;27;20436;-72
2024/03/20 03:25:05;;;;;;;0.38;0.38;;;8.60;87.20;;;;;;5134488;27;20040;-71
2024/03/20 03:27:31;;;;;;;0.80;0.57;;;8.60;87.10;;;;;;5134465;27;20138;-73
2024/03/20 03:29:57;;;;;;;0.57;0.57;;;8.60;87.20;;;;;;5134388;27;20719;-72
2024/03/20 03:32:22;;;;;;;0.40;0.40;;;8.70;87.20;;;;;;5098861;27;20035;-73
2024/03/20 03:34:48;;;;;;;0.60;0.60;;;8.60;87.10;;;;;;5116211;28;20035;-73
2024/03/20 03:37:14;;;;;;;0.70;0.55;;;8.60;87.20;;;;;;5115923;27;20122;-72
2024/03/20 03:39:39;;;;;;;1.65;0.60;;;8.60;87.20;;;;;;5134322;27;20096;-72
2024/03/20 03:42:05;;;;;;;0.40;0.40;;;8.60;87.10;;;;;;5116138;28;20042;-73
2024/03/20 03:44:31;;;;;;;0.85;0.68;;;8.60;87.10;;;;;;5134378;27;20088;-72
2024/03/20 03:46:57;;;;;;;0.43;0.43;;;8.60;87.10;;;;;;5134780;27;20039;-73
2024/03/20 03:49:23;;;;;;;0.55;0.45;;;8.60;87.10;;;;;;5134492;27;20035;-72
2024/03/20 03:51:48;;;;;;;0.65;0.60;;;8.60;87.10;;;;;;5133917;27;20042;-72
2024/03/20 03:54:14;;;;;;;0.73;0.68;;;8.60;87.20;;;;;;5115896;27;20144;-73
2024/03/20 03:56:40;;;;;;;0.85;0.60;;;8.60;87.20;;;;;;5115701;28;20043;-72
2024/03/20 03:59:05;;;;;;;0.80;0.60;;;8.60;87.30;;;;;;5116205;28;20084;-72
2024/03/20 04:01:31;;;;;;;0.65;0.50;;;8.60;87.30;;;;;;5115671;28;20062;-72
2024/03/20 04:03:57;;;;;;;0.70;0.60;;;8.60;87.40;;;;;;5115574;27;20455;-73
2024/03/20 04:06:23;;;;;;;0.52;0.52;;;8.40;87.20;;;;;;5116294;28;20039;-72
2024/03/20 04:08:49;;;;;;;0.50;0.50;;;8.50;87.40;;;;;;5134299;27;20394;-72
2024/03/20 04:11:14;;;;;;;0.60;0.60;;;8.50;87.50;;;;;;5134039;27;20486;-72
2024/03/20 04:13:40;;;;;;;0.68;0.65;;;8.50;87.50;;;;;;5134477;27;20472;-72
2024/03/20 04:16:06;;;;;;;1.15;0.70;;;8.40;87.50;;;;;;5098515;28;20043;-73
2024/03/20 04:18:31;;;;;;;0.88;0.80;;;8.40;87.60;;;;;;5133773;27;20034;-72
2024/03/20 04:20:57;;;;;;;1.52;0.80;;;8.40;87.60;;;;;;5115523;27;20429;-72
2024/03/20 04:23:23;;;;;;;1.02;0.60;;;8.40;87.70;;;;;;5133933;27;20035;-73
2024/03/20 04:25:49;;;;;;;1.20;0.60;;;8.40;87.70;;;;;;5133479;27;20087;-72
2024/03/20 04:28:14;;;;;;;1.10;0.60;;;8.30;87.70;;;;;;5133502;27;20070;-72
2024/03/20 04:30:40;;;;;;;1.75;0.75;;;8.40;87.80;;;;;;5115445;28;20062;-72
2024/03/20 04:33:06;;;;;;;0.50;0.50;;;8.30;87.70;;;;;;5133922;27;20038;-72
2024/03/20 04:35:33;;;;;;;0.63;0.40;;;8.30;87.70;;;;;;5115262;28;20050;-72
2024/03/20 04:37:58;;;;;;;0.47;0.47;;;8.30;87.70;;;;;;5098121;28;20077;-72
2024/03/20 04:40:24;;;;;;;0.43;0.43;;;8.40;87.80;;;;;;5133809;27;20482;-72
2024/03/20 04:42:53;;;;;;;1.00;0.60;;;8.30;87.70;;;;;;5133604;27;20450;-72
2024/03/20 04:45:20;;;;;;;0.80;0.60;;;8.40;87.80;;;;;;5114844;28;20370;-72
2024/03/20 04:47:45;;;;;;;0.75;0.50;;;8.30;87.70;;;;;;5115063;28;20047;-72
2024/03/20 04:50:12;;;;;;;0.65;0.50;;;8.30;87.80;;;;;;5114662;28;20043;-72
2024/03/20 04:52:39;;;;;;;0.50;0.50;;;8.30;87.80;;;;;;5132961;27;20047;-72
2024/03/20 04:55:05;;;;;;;0.63;0.63;;;8.30;87.90;;;;;;5133410;27;20046;-72
2024/03/20 04:57:31;;;;;;;0.95;0.60;;;8.20;87.80;;;;;;5133561;27;20050;-72
2024/03/20 04:59:57;;;;;;;1.52;0.70;;;8.20;87.90;;;;;;5097729;27;20454;-73
2024/03/20 05:02:23;;;;;;;0.77;0.60;;;8.30;87.90;;;;;;5097608;28;20589;-72
2024/03/20 05:04:48;;;;;;;0.50;0.50;;;8.20;87.90;;;;;;5133421;27;20119;-72
2024/03/20 05:07:14;;;;;;;0.70;0.70;;;8.20;88.00;;;;;;5133552;27;20130;-73
2024/03/20 05:09:40;;;;;;;0.50;0.50;;;8.20;88.00;;;;;;5115004;28;20122;-72
2024/03/20 05:12:06;;;;;;;0.65;0.50;;;8.20;88.10;;;;;;5133308;27;20464;-73
2024/03/20 05:14:32;;;;;;;0.75;0.50;;;8.10;88.10;;;;;;5097745;28;20062;-72
2024/03/20 05:17:00;;;;;;;1.00;0.60;;;8.10;88.10;;;;;;5114981;28;20482;-72
2024/03/20 05:19:27;;;;;;;0.95;0.65;;;8.10;88.10;;;;;;5115806;28;20039;-72
2024/03/20 05:21:53;;;;;;;0.70;0.65;;;8.10;88.10;;;;;;5114751;28;20130;-73
2024/03/20 05:24:19;;;;;;;1.20;0.73;;;8.10;88.10;;;;;;5133013;27;20490;-72
2024/03/20 05:26:45;;;;;;;0.98;0.70;;;8.10;88.20;;;;;;5133533;27;20148;-72
2024/03/20 05:29:11;;;;;;;0.47;0.47;;;8.00;88.20;;;;;;5115052;27;20084;-72
2024/03/20 05:31:38;;;;;;;1.50;0.88;;;8.00;88.20;;;;;;5133447;27;20073;-72
2024/03/20 05:34:04;;;;;;;0.55;0.55;;;8.00;88.30;;;;;;5133017;27;20054;-72
2024/03/20 05:36:31;;;;;;;0.80;0.60;;;8.10;88.40;;;;;;5132587;27;20054;-72
2024/03/20 05:38:56;;;;;;;0.98;0.60;;;8.00;88.40;;;;;;5133564;27;20043;-72
2024/03/20 05:41:22;;;;;;;1.00;0.73;;;8.00;88.40;;;;;;5100975;28;20541;-72
2024/03/20 05:43:48;;;;;;;0.60;0.60;;;8.00;88.40;;;;;;5084067;27;20501;-72
2024/03/20 05:46:14;;;;;;;0.85;0.60;;;8.00;88.40;;;;;;5136227;28;20490;-72
2024/03/20 05:48:42;;;;;;;0.75;0.57;;;8.00;88.50;;;;;;5136996;27;20130;-73
2024/03/20 05:51:08;;;;;;;1.05;0.70;;;8.00;88.40;;;;;;5101027;28;20485;-72
2024/03/20 05:53:34;;;;;;;1.08;0.77;;;8.00;88.40;;;;;;5100979;27;20038;-73
2024/03/20 05:56:00;;;;;;;0.50;0.50;;;8.00;88.40;;;;;;5136010;27;20040;-73
2024/03/20 05:58:25;;;;;;;0.80;0.60;;;8.00;88.40;;;;;;5118504;28;20062;-73
2024/03/20 06:00:52;;;;;;;0.88;0.70;;;8.00;88.30;;;;;;5136016;27;20499;-73
2024/03/20 06:03:18;;;;;;;0.75;0.70;;;8.00;88.30;;;;;;5135981;27;20046;-74
2024/03/20 06:05:45;;;;;;;1.08;0.60;;;8.00;88.30;;;;;;5136354;27;20027;-74
2024/03/20 06:08:11;;;;;;;0.85;0.70;;;8.00;88.20;;;;;;5136081;27;20074;-72
2024/03/20 06:10:37;;;;;;;0.93;0.50;;;8.00;88.20;;;;;;5136519;27;20097;-72
2024/03/20 06:13:03;;;;;;;0.52;0.40;;;8.10;88.30;;;;;;5136075;27;20043;-73
2024/03/20 06:15:28;;;;;;;0.95;0.60;;;8.10;88.20;;;;;;5117871;28;20179;-73
2024/03/20 06:17:54;;;;;;;0.98;0.65;;;8.10;88.10;;;;;;5117414;28;20047;-73
2024/03/20 06:20:20;;;;;;;0.70;0.60;;;8.20;88.20;;;;;;5135933;27;20046;-73
2024/03/20 06:22:46;;;;;;;1.08;0.52;;;8.10;88.10;;;;;;5117350;27;20038;-74
2024/03/20 06:25:12;;;;;;;0.52;0.50;;;8.20;88.10;;;;;;5136599;27;20478;-74
2024/03/20 06:27:38;;;;;;;1.48;0.80;;;8.30;88.10;;;;;;5117487;28;20047;-73
2024/03/20 06:30:11;;;;;;;1.23;0.70;;;8.30;88.00;;;;;;5117528;28;20050;-73
2024/03/20 06:32:38;;;;;;;2.10;0.80;;;8.30;88.00;;;;;;5117099;28;20039;-73
2024/03/20 06:35:06;;;;;;;0.80;0.68;;;8.30;88.00;;;;;;5117117;27;20104;-74
2024/03/20 06:37:31;;;;;;;0.55;0.50;;;8.30;87.90;;;;;;5117212;28;20148;-74
2024/03/20 06:39:57;;;;;;;0.45;0.43;;;8.30;87.90;;;;;;5116971;28;20031;-73
2024/03/20 06:42:23;;;;;;;0.50;0.50;;;8.50;87.90;;;;;;5136103;27;20039;-74
2024/03/20 06:44:49;;;;;;;0.43;0.43;;;8.50;87.80;;;;;;5135470;27;20039;-73
2024/03/20 06:47:16;;;;;;;1.30;0.70;;;8.60;87.90;;;;;;5117046;28;20134;-73
2024/03/20 06:49:44;;;;;;;0.45;0.45;;;8.60;87.70;;;;;;5135380;27;20046;-74
2024/03/20 06:52:12;;;;;;;0.52;0.52;;;8.70;87.70;;;;;;5134074;28;20042;-74
2024/03/20 06:54:42;;;;;;;1.15;0.70;;;8.70;87.60;;;;;;5117028;28;20035;-73
2024/03/20 06:57:10;;;;;;;1.00;0.60;;;8.80;87.60;;;;;;5135199;27;20074;-73
2024/03/20 06:59:37;;;;;;;0.60;0.60;;;8.90;87.50;;;;;;5100625;27;20117;-74
2024/03/20 07:02:03;;;;;;;0.88;0.50;;;8.90;87.40;;;;;;5117072;28;20036;-73
2024/03/20 07:04:29;;;;;;;0.70;0.47;;;9.00;87.40;;;;;;5117097;28;20027;-74
2024/03/20 07:06:54;;;;;;;1.20;0.82;;;9.00;87.30;;;;;;5135097;27;20043;-73
2024/03/20 07:09:22;;;;;;;1.17;0.80;;;9.10;87.30;;;;;;5135178;27;20039;-73
2024/03/20 07:11:48;;;;;;;0.75;0.63;;;9.20;87.30;;;;;;5116925;28;20050;-73
2024/03/20 07:14:20;;;;;;;0.70;0.60;;;9.20;87.20;;;;;;5117417;28;20043;-74
2024/03/20 07:16:45;;;;;;;1.67;0.77;;;9.20;87.20;;;;;;5100269;28;20138;-73
2024/03/20 07:19:12;;;;;;;0.70;0.60;;;9.30;87.20;;;;;;5099069;28;20873;-74
2024/03/20 07:21:41;;;;;;;1.33;0.80;;;9.40;87.30;;;;;;5135330;28;20044;-73
2024/03/20 07:24:20;;;;;;;1.00;0.70;;;9.40;87.20;;;;;;5116444;28;20387;-72
2024/03/20 07:26:46;;;;;;;1.10;0.88;;;9.50;87.30;;;;;;5116324;28;20103;-73
2024/03/20 07:29:13;;;;;;;0.68;0.65;;;9.50;87.20;;;;;;5135459;27;20470;-73
2024/03/20 07:31:39;;;;;;;1.27;0.70;;;9.60;87.10;;;;;;5088593;28;20086;-74
2024/03/20 07:34:06;;;;;;;1.17;0.80;;;9.70;87.10;;;;;;5116390;28;20509;-74
2024/03/20 07:36:33;;;;;;;2.15;0.80;;;9.80;87.00;;;;;;5116733;28;20118;-73
2024/03/20 07:39:03;;;;;;;1.27;0.90;;;10.00;87.00;;;;;;5134612;27;20039;-73
2024/03/20 07:41:29;;;;;;;1.05;0.68;;;10.00;86.80;;;;;;5097946;28;20042;-73
2024/03/20 07:43:55;;;;;;;1.05;0.70;;;10.20;86.80;;;;;;5135179;28;20031;-73
2024/03/20 07:46:21;;;;;;;0.73;0.70;;;10.30;86.60;;;;;;5116399;28;20047;-73
2024/03/20 07:48:48;;;;;;;0.98;0.80;;;10.40;86.50;;;;;;5134414;27;20034;-73
2024/03/20 07:51:14;;;;;;;2.00;1.20;;;10.50;86.40;;;;;;5114027;28;20046;-73
2024/03/20 07:53:42;;;;;;;1.65;0.90;;;10.60;86.30;;;;;;5116052;28;20043;-74
2024/03/20 07:56:08;;;;;;;1.33;0.90;;;10.70;86.20;;;;;;5115798;28;20077;-73
2024/03/20 07:58:35;;;;;;;1.05;0.82;;;10.80;86.10;;;;;;5116574;28;20501;-73
2024/03/20 08:01:01;;;;;;;1.13;1.00;;;10.90;85.90;;;;;;5134247;27;20105;-73
2024/03/20 08:03:27;;;;;;;1.40;0.90;;;11.10;85.90;;;;;;5133739;27;20039;-73
2024/03/20 08:05:54;;;;;;;1.13;0.85;;;11.20;85.70;;;;;;5116090;27;20122;-73
2024/03/20 08:08:20;;;;;;;0.93;0.85;;;11.20;85.70;;;;;;5134451;27;20101;-73
2024/03/20 08:10:46;;;;;;;1.55;0.80;;;11.30;85.60;;;;;;5097273;28;20047;-73
2024/03/20 08:13:12;;;;;;;1.80;1.20;;;11.40;85.50;;;;;;5115801;27;20375;-74
2024/03/20 08:15:39;;;;;;;1.08;0.75;;;11.60;85.50;;;;;;5115590;28;20104;-74
2024/03/20 08:18:05;;;;;;;1.08;0.70;;;11.60;85.30;;;;;;5134015;27;20043;-73
2024/03/20 08:20:33;;;;;;;0.80;0.80;;;11.70;85.30;;;;;;5132585;28;20104;-74
2024/03/20 08:23:00;;;;;;;0.95;0.80;;;11.90;85.20;;;;;;5115990;27;20039;-73
2024/03/20 08:25:26;;;;;;;1.77;0.93;;;12.00;85.10;;;;;;5134434;27;20370;-73
2024/03/20 08:27:52;;;;;;;1.70;1.00;;;12.00;85.00;;;;;;5115776;28;20039;-73
2024/03/20 08:30:17;;;;;;;1.85;1.08;;;12.20;85.00;;;;;;5115831;28;20490;-73
2024/03/20 08:32:43;;;;;;;2.13;1.20;;;12.30;84.90;;;;;;5133802;27;20375;-73
2024/03/20 08:35:12;;;;;;;0.85;0.85;;;12.40;84.80;;;;;;5115184;28;20035;-74
2024/03/20 08:37:39;;;;;;;2.08;1.05;;;12.60;84.60;;;;;;5133523;27;20058;-73
2024/03/20 08:40:06;;;;;;;1.33;1.05;;;12.60;84.40;;;;;;5133482;27;20578;-73
2024/03/20 08:42:32;;;;;;;1.58;1.20;;;12.70;84.40;;;;;;5115217;27;20053;-74
2024/03/20 08:45:00;;;;;;;1.08;0.90;;;12.70;84.40;;;;;;5133764;27;20035;-73
2024/03/20 08:47:26;;;;;;;1.67;1.10;;;12.90;84.50;;;;;;5133487;27;20051;-73
2024/03/20 08:49:52;;;;;;;1.45;1.00;;;13.00;84.30;;;;;;5115144;28;20046;-73
2024/03/20 08:52:17;;;;;;;1.45;1.02;;;13.00;84.10;;;;;;5115475;27;20046;-73
2024/03/20 08:54:43;;;;;;;1.38;0.95;;;13.20;84.00;;;;;;5115084;28;20039;-73
2024/03/20 08:57:11;;;;;;;1.83;1.30;;;13.40;83.90;;;;;;5133353;27;20122;-73
2024/03/20 08:59:40;;;;;;;1.88;1.15;;;13.50;83.80;;;;;;5113009;28;20059;-74
2024/03/20 09:02:07;;;;;;;2.70;1.35;;;13.60;83.70;;;;;;5115205;28;20039;-73
2024/03/20 09:04:32;;;;;;;3.03;1.40;;;13.80;83.50;;;;;;5115707;27;20065;-73
2024/03/20 09:06:58;;;;;;;2.28;1.40;;;14.00;83.40;;;;;;5114967;28;20498;-72
2024/03/20 09:09:24;;;;;;;1.65;1.20;;;14.20;83.10;;;;;;5133432;27;20482;-73
2024/03/20 09:11:53;;;;;;;2.10;1.50;;;14.20;82.90;;;;;;5132937;27;20068;-73
2024/03/20 09:14:18;;;;;;;1.35;1.00;;;14.20;82.80;;;;;;5113678;27;20105;-74
2024/03/20 09:16:46;;;;;;;1.95;1.23;;;14.20;82.90;;;;;;5114693;27;20147;-74
2024/03/20 09:19:12;;;;;;;1.40;1.20;;;14.40;83.10;;;;;;5114998;28;20096;-74
2024/03/20 09:21:39;;;;;;;2.00;1.42;;;14.50;82.90;;;;;;5133672;27;20047;-73
2024/03/20 09:24:06;;;;;;;1.52;1.27;;;14.60;82.80;;;;;;5133444;27;20035;-74
2024/03/20 09:26:34;;;;;;;2.47;1.40;;;14.80;82.60;;;;;;5132684;27;20042;-74
2024/03/20 09:29:00;;;;;;;3.70;1.70;;;14.90;82.40;;;;;;5133081;27;20121;-73
2024/03/20 09:31:27;;;;;;;2.15;1.40;;;15.00;82.30;;;;;;5132812;27;20050;-74
2024/03/20 09:33:55;;;;;;;2.83;1.55;;;15.20;82.20;;;;;;5132744;27;20039;-74
2024/03/20 09:36:23;;;;;;;1.73;1.02;;;15.20;82.20;;;;;;5132610;27;20035;-73
2024/03/20 09:38:49;;;;;;;2.45;1.30;;;15.30;82.20;;;;;;5114436;28;20110;-73
2024/03/20 09:41:15;;;;;;;1.98;1.13;;;15.40;82.20;;;;;;5132927;27;20505;-74
2024/03/20 09:43:44;;;;;;;2.40;1.60;;;15.50;82.10;;;;;;5132435;27;20165;-74
2024/03/20 09:46:15;;;;;;;2.88;1.90;;;15.50;82.00;;;;;;5114275;28;20045;-73
2024/03/20 09:48:41;;;;;;;1.83;1.45;;;15.60;82.00;;;;;;5132663;27;20043;-73
2024/03/20 09:51:07;;;;;;;2.38;1.38;;;15.60;81.90;;;;;;5132833;27;20055;-73
2024/03/20 09:53:34;;;;;;;2.33;1.40;;;15.70;81.90;;;;;;5132788;27;20033;-73
2024/03/20 09:56:11;;;;;;;2.65;1.67;;;15.70;81.80;;;;;;5097328;28;20035;-73
2024/03/20 09:58:38;;;;;;;2.88;1.80;;;15.80;81.80;;;;;;5131980;28;20478;-73
2024/03/20 10:01:11;;;;;;;2.67;1.77;;;15.90;81.80;;;;;;5132899;28;20066;-73
2024/03/20 10:03:38;;;;;;;2.88;1.80;;;15.90;81.80;;;;;;5114893;28;20039;-73
2024/03/20 10:06:05;;;;;;;3.70;2.28;;;16.00;81.80;;;;;;5132613;27;20038;-73
2024/03/20 10:08:34;;;;;;;2.78;1.75;;;16.00;81.80;;;;;;5132488;27;20142;-74
2024/03/20 10:11:00;;;;;;;3.03;1.92;;;15.90;81.80;;;;;;5114762;27;20039;-73
2024/03/20 10:13:26;;;;;;;3.13;1.95;;;15.90;82.00;;;;;;5132382;27;20039;-73
2024/03/20 10:16:08;;;;;;;2.10;1.52;;;16.00;82.00;;;;;;5113855;27;20085;-73
2024/03/20 10:18:34;;;;;;;3.13;1.88;;;16.00;81.80;;;;;;5131293;28;20027;-73
2024/03/20 10:21:01;;;;;;;3.70;2.08;;;16.00;81.90;;;;;;5132302;28;20039;-74
2024/03/20 10:23:27;;;;;;;3.72;2.05;;;16.20;81.90;;;;;;5132335;28;20043;-73
2024/03/20 10:25:57;;;;;;;5.57;1.95;;;16.20;81.70;;;;;;5134296;27;20062;-73
2024/03/20 10:28:27;;;;;;;2.92;1.70;;;16.30;81.60;;;;;;5116018;28;20042;-73
2024/03/20 10:30:53;;;;;;;2.90;1.70;;;16.30;81.60;;;;;;5134263;28;20063;-73
2024/03/20 10:33:19;;;;;;;2.88;1.80;;;16.30;81.60;;;;;;5100363;28;20323;-72
2024/03/20 10:35:50;;;;;;;3.97;2.50;;;16.40;81.60;;;;;;5099703;28;20047;-72
2024/03/20 10:38:17;;;;;;;;;;;16.50;81.50;;;;;;5118188;28;20042;-73
2024/03/20 10:40:43;;;;;;;1.27;1.08;;;16.50;81.50;;;;;;5135695;27;19918;-73
2024/03/20 10:43:10;;;;;;;2.83;1.67;;;16.40;81.50;;;;;;5117387;28;20122;-74
2024/03/20 10:45:37;;;;;;;2.80;1.77;;;16.50;81.60;;;;;;5135997;27;20516;-72
2024/03/20 10:48:05;;;;;;;3.50;2.03;;;16.50;81.50;;;;;;5117201;28;20517;-72
2024/03/20 10:50:31;;;;;;;4.80;2.65;;;16.60;81.30;;;;;;5135634;28;20127;-72
2024/03/20 10:52:57;;;;;;;2.92;1.70;;;16.60;81.20;;;;;;5116975;28;20070;-73
2024/03/20 10:55:23;;;;;;;2.67;1.63;;;16.70;81.40;;;;;;5098062;28;20070;-72
2024/03/20 10:57:50;;;;;;;2.25;1.80;;;16.80;81.40;;;;;;5116662;28;20067;-72
2024/03/20 11:00:22;;;;;;;3.03;1.70;;;16.70;81.20;;;;;;5100105;27;20512;-73
2024/03/20 11:02:47;;;;;;;3.55;2.20;;;16.80;81.10;;;;;;5135832;27;20031;-73
2024/03/20 11:05:38;;;;;;;5.28;2.70;;;16.90;80.90;;;;;;5116862;28;20042;-73
2024/03/20 11:08:07;;;;;;;4.10;2.30;;;16.90;80.70;;;;;;5099139;28;20070;-74
2024/03/20 11:10:34;;;;;;;3.67;1.70;;;17.00;80.70;;;;;;5117659;28;20043;-73
2024/03/20 11:13:01;;;;;;;4.32;1.88;;;17.00;80.70;;;;;;5135141;27;20039;-74
2024/03/20 11:15:29;;;;;;;4.15;2.03;;;17.10;80.60;;;;;;5099512;28;20039;-74
2024/03/20 11:17:55;;;;;;;3.38;2.17;;;17.10;80.40;;;;;;5135006;27;20044;-73
2024/03/20 11:20:41;;;;;;;2.67;1.90;;;17.20;80.40;;;;;;5117237;28;20386;-73
2024/03/20 11:23:19;;;;;;;2.90;1.60;;;17.20;80.20;;;;;;5134585;28;20058;-73
2024/03/20 11:25:46;;;;;;;1.90;1.30;;;17.20;80.10;;;;;;5116407;28;20043;-73
2024/03/20 11:28:13;;;;;;;4.40;2.20;;;17.30;80.20;;;;;;5133491;27;20039;-73
2024/03/20 11:30:39;;;;;;;2.53;1.75;;;17.40;80.00;;;;;;5134919;27;20070;-72
2024/03/20 11:33:05;;;;;;;3.38;1.70;;;17.40;79.80;;;;;;5116404;27;20074;-72
2024/03/20 11:35:31;;;;;;;2.03;1.42;;;17.50;79.80;;;;;;5134943;27;20058;-73
2024/03/20 11:37:57;;;;;;;3.53;1.75;;;17.50;79.80;;;;;;5133581;27;20043;-71
2024/03/20 11:40:24;;;;;;;2.45;1.50;;;17.50;79.70;;;;;;5116239;28;20039;-72
2024/03/20 11:42:51;;;;;;;3.35;2.00;;;17.50;79.70;;;;;;5134424;27;20122;-72
2024/03/20 11:45:17;;;;;;;3.47;1.90;;;17.50;79.50;;;;;;5116436;27;20043;-71
2024/03/20 11:47:43;;;;;;;2.05;1.33;;;17.60;79.60;;;;;;5134514;27;20038;-71
2024/03/20 11:50:13;;;;;;;2.63;1.85;;;17.60;79.50;;;;;;5134334;27;20036;-71
2024/03/20 11:52:39;;;;;;;2.90;1.80;;;17.70;79.30;;;;;;5134601;27;20062;-72
2024/03/20 11:55:10;;;;;;;3.05;2.00;;;17.90;79.20;;;;;;5098800;28;20486;-72
2024/03/20 11:57:35;;;;;;;;;;;17.90;78.90;;;;;;5134740;28;20042;-72
2024/03/20 12:00:01;;;;;;;1.40;1.25;;;17.90;79.10;;;;;;5134169;28;19911;-72
2024/03/20 12:02:33;;;;;;;1.95;1.40;;;18.00;79.00;;;;;;5115712;28;20049;-72
2024/03/20 12:04:58;;;;;;;2.85;1.70;;;18.00;78.90;;;;;;5099774;28;20097;-72
2024/03/20 12:07:26;;;;;;;3.10;1.85;;;18.10;78.90;;;;;;5116063;27;20172;-71
2024/03/20 12:09:52;;;;;;;2.10;1.60;;;18.20;78.70;;;;;;5134188;27;20047;-73
2024/03/20 12:12:20;;;;;;;3.10;1.88;;;18.20;78.60;;;;;;5134255;27;20035;-73
2024/03/20 12:14:47;;;;;;;3.35;2.00;;;18.20;78.50;;;;;;5115869;28;20063;-73
2024/03/20 12:17:19;;;;;;;2.58;1.98;;;18.40;78.60;;;;;;5134184;28;20046;-72
2024/03/20 12:19:46;;;;;;;3.88;2.20;;;18.30;78.40;;;;;;5098595;27;20038;-72
2024/03/20 12:22:14;;;;;;;3.25;1.70;;;18.30;78.60;;;;;;5134014;27;20066;-72
2024/03/20 12:24:41;;;;;;;2.63;1.40;;;18.20;78.60;;;;;;5116179;28;20046;-73
2024/03/20 12:27:11;;;;;;;2.10;1.35;;;18.30;78.70;;;;;;5132539;28;20042;-73
2024/03/20 12:29:37;;;;;;;2.95;2.00;;;18.30;78.60;;;;;;5131909;28;20091;-73
2024/03/20 12:32:03;;;;;;;3.00;2.00;;;18.40;78.50;;;;;;5115406;28;20059;-72
2024/03/20 12:34:34;;;;;;;4.72;2.25;;;18.40;78.50;;;;;;5133900;27;20039;-72
2024/03/20 12:37:00;;;;;;;2.55;1.60;;;18.40;78.50;;;;;;5098566;27;20099;-73
2024/03/20 12:39:29;;;;;;;2.80;1.75;;;18.50;78.40;;;;;;5115307;28;20047;-72
2024/03/20 12:41:57;;;;;;;3.10;1.70;;;18.60;78.50;;;;;;5111379;28;20066;-72
2024/03/20 12:44:23;;;;;;;2.38;1.55;;;18.60;78.30;;;;;;5098817;28;20039;-72
2024/03/20 12:46:49;;;;;;;4.72;2.17;;;18.70;78.20;;;;;;5134350;27;20091;-72
2024/03/20 12:49:14;;;;;;;4.38;2.00;;;18.70;77.90;;;;;;5133624;27;20039;-72
2024/03/20 12:51:41;;;;;;;3.58;2.13;;;18.70;77.80;;;;;;5098065;28;20471;-71